Time;durP1;ratioP1;P1;durP2;ratioP2;P2;SDS_P1;SDS_P2;PMS_P1;PMS_P2;Temp;Humidity;BMP_temperature;BMP_pressure;BME280_temperature;BME280_humidity;BME280_pressure;Samples;Min_cycle;Max_cycle;Signal;HPM_P1;HPM_P2
2023/09/04 00:00:53;;;;;;;4.53;4.20;;;17.20;97.30;;;;;;6259893;28;20252;-70
2023/09/04 00:03:54;;;;;;;7.73;4.70;;;17.20;97.60;;;;;;6269756;28;20261;-70
2023/09/04 00:06:54;;;;;;;4.63;4.13;;;17.20;97.30;;;;;;6251926;28;20189;-70
2023/09/04 00:09:56;;;;;;;4.50;4.10;;;17.20;97.60;;;;;;6274015;28;20189;-70
2023/09/04 00:12:57;;;;;;;4.33;3.53;;;17.20;97.10;;;;;;6266796;28;20190;-70
2023/09/04 00:15:58;;;;;;;4.17;3.80;;;17.20;96.90;;;;;;6267412;28;20201;-70
2023/09/04 00:18:58;;;;;;;4.37;4.00;;;17.20;96.20;;;;;;6277004;28;20225;-70
2023/09/04 00:21:59;;;;;;;5.37;4.17;;;17.20;96.90;;;;;;6259083;28;20181;-70
2023/09/04 00:25:00;;;;;;;4.30;3.90;;;17.10;97.10;;;;;;6271692;28;20285;-70
2023/09/04 00:28:00;;;;;;;9.77;3.97;;;17.10;97.20;;;;;;6258716;28;20199;-70
2023/09/04 00:31:01;;;;;;;4.10;3.80;;;17.20;98.20;;;;;;6252286;28;20210;-70
2023/09/04 00:34:02;;;;;;;5.63;2.97;;;17.20;96.50;;;;;;6282269;28;20188;-70
2023/09/04 00:37:04;;;;;;;4.63;4.00;;;17.20;96.70;;;;;;6277495;28;20194;-70
2023/09/04 00:40:06;;;;;;;5.00;4.13;;;17.10;97.50;;;;;;6271194;28;20218;-70
2023/09/04 00:43:07;;;;;;;6.87;3.47;;;17.10;97.20;;;;;;6277365;28;20190;-70
2023/09/04 00:46:08;;;;;;;7.53;4.17;;;17.10;97.50;;;;;;6292213;28;20325;-70
2023/09/04 00:49:10;;;;;;;6.20;4.43;;;17.10;97.10;;;;;;6275740;28;20185;-70
2023/09/04 00:52:11;;;;;;;4.03;3.53;;;17.10;96.70;;;;;;6259633;28;20197;-70
2023/09/04 00:55:13;;;;;;;5.00;3.17;;;17.10;97.00;;;;;;6295666;28;20209;-70
2023/09/04 00:58:13;;;;;;;4.23;3.83;;;17.10;97.10;;;;;;6298985;28;20199;-70
2023/09/04 01:01:14;;;;;;;3.73;2.93;;;17.10;97.30;;;;;;6260538;28;20214;-70
2023/09/04 01:04:15;;;;;;;5.20;3.80;;;17.10;96.90;;;;;;6262311;28;20195;-70
2023/09/04 01:07:16;;;;;;;4.83;3.13;;;17.00;96.60;;;;;;6273606;28;20222;-70
2023/09/04 01:10:16;;;;;;;3.10;2.67;;;17.00;97.30;;;;;;6256984;28;20229;-70
2023/09/04 01:13:24;;;;;;;7.63;3.33;;;17.00;96.40;;;;;;6254239;28;20288;-70
2023/09/04 01:16:25;;;;;;;4.10;3.10;;;17.00;95.90;;;;;;6275326;28;20191;-70
2023/09/04 01:19:26;;;;;;;3.80;3.37;;;17.00;95.70;;;;;;6279287;28;20224;-70
2023/09/04 01:22:29;;;;;;;4.90;3.37;;;17.00;96.00;;;;;;6281493;28;20221;-70
2023/09/04 01:25:38;;;;;;;3.60;3.30;;;17.00;96.40;;;;;;6290274;28;20285;-70
2023/09/04 01:28:48;;;;;;;4.33;3.30;;;17.00;95.70;;;;;;6270942;28;20191;-70
2023/09/04 01:32:12;;;;;;;3.70;3.40;;;17.00;95.90;;;;;;6282715;28;20270;-70
2023/09/04 01:35:14;;;;;;;5.03;3.33;;;17.00;96.40;;;;;;6285217;28;20239;-70
2023/09/04 01:38:15;;;;;;;3.43;3.13;;;17.00;96.30;;;;;;6267473;28;20195;-70
2023/09/04 01:41:16;;;;;;;4.07;3.43;;;17.00;95.50;;;;;;6275072;28;20265;-70
2023/09/04 01:44:17;;;;;;;3.70;3.40;;;17.00;95.50;;;;;;6286175;28;20195;-70
2023/09/04 01:47:18;;;;;;;3.50;2.83;;;17.00;94.70;;;;;;6286509;28;20294;-70
2023/09/04 01:50:19;;;;;;;3.63;3.10;;;17.00;94.70;;;;;;6271938;28;20191;-70
2023/09/04 01:53:20;;;;;;;4.10;3.50;;;17.00;95.30;;;;;;6259711;28;20190;-70
2023/09/04 01:56:20;;;;;;;4.10;3.00;;;17.10;94.60;;;;;;6285505;28;20186;-70
2023/09/04 01:59:21;;;;;;;3.83;2.80;;;17.10;95.10;;;;;;6275285;28;20220;-70
2023/09/04 02:02:22;;;;;;;3.30;3.00;;;17.00;94.30;;;;;;6272818;28;20187;-70
2023/09/04 02:05:23;;;;;;;4.87;3.40;;;17.00;95.00;;;;;;6258376;28;20182;-70
2023/09/04 02:08:23;;;;;;;3.37;2.87;;;17.00;94.10;;;;;;6264259;28;20283;-70
2023/09/04 02:11:24;;;;;;;4.63;3.00;;;17.00;95.00;;;;;;6272212;28;20187;-70
2023/09/04 02:14:25;;;;;;;3.83;2.70;;;17.00;94.00;;;;;;6255863;28;20236;-70
2023/09/04 02:17:25;;;;;;;3.03;2.73;;;16.90;93.90;;;;;;6270811;28;20190;-70
2023/09/04 02:20:26;;;;;;;2.90;2.70;;;16.90;94.00;;;;;;6267614;28;20225;-70
2023/09/04 02:23:27;;;;;;;4.70;3.03;;;16.90;92.90;;;;;;6281086;28;20255;-70
2023/09/04 02:26:27;;;;;;;4.10;2.73;;;16.80;93.40;;;;;;6288549;28;20202;-70
2023/09/04 02:29:29;;;;;;;2.87;2.60;;;16.70;93.00;;;;;;6253593;28;20201;-70
2023/09/04 02:32:30;;;;;;;4.60;2.63;;;16.70;93.00;;;;;;6274353;28;20237;-70
2023/09/04 02:35:30;;;;;;;3.37;2.87;;;16.60;93.50;;;;;;6254070;28;20209;-70
2023/09/04 02:38:31;;;;;;;4.27;2.63;;;16.50;93.50;;;;;;6269861;28;20190;-70
2023/09/04 02:41:32;;;;;;;3.10;2.80;;;16.50;93.60;;;;;;6275384;28;20186;-70
2023/09/04 02:44:32;;;;;;;5.07;2.53;;;16.40;93.40;;;;;;6252571;28;20252;-70
2023/09/04 02:47:35;;;;;;;5.47;2.97;;;16.40;93.30;;;;;;6263914;28;21817;-70
2023/09/04 02:50:36;;;;;;;3.90;2.60;;;16.40;92.90;;;;;;6277468;28;20198;-70
2023/09/04 02:53:37;;;;;;;3.97;2.40;;;16.40;93.00;;;;;;6288557;28;20201;-70
2023/09/04 02:56:38;;;;;;;2.43;2.23;;;16.30;92.90;;;;;;6271626;28;20193;-70
2023/09/04 02:59:38;;;;;;;5.07;2.87;;;16.20;93.00;;;;;;6298668;28;20217;-70
2023/09/04 03:02:39;;;;;;;7.27;2.77;;;16.20;92.80;;;;;;6267277;28;20293;-70
2023/09/04 03:05:40;;;;;;;2.83;2.53;;;16.20;92.70;;;;;;6261210;28;20191;-70
2023/09/04 03:08:41;;;;;;;5.17;2.87;;;16.10;92.80;;;;;;6290132;28;20189;-70
2023/09/04 03:11:42;;;;;;;6.60;3.20;;;16.10;93.00;;;;;;6268471;28;20221;-70
2023/09/04 03:14:42;;;;;;;4.53;2.80;;;16.00;92.90;;;;;;6269955;28;20188;-70
2023/09/04 03:17:43;;;;;;;4.03;2.67;;;16.00;92.90;;;;;;6271676;28;20269;-70
2023/09/04 03:20:44;;;;;;;3.40;2.80;;;16.00;92.50;;;;;;6266357;28;20217;-69
2023/09/04 03:23:47;;;;;;;4.87;3.20;;;16.00;93.30;;;;;;6264383;28;20272;-69
2023/09/04 03:26:48;;;;;;;3.77;2.73;;;16.00;92.60;;;;;;6251482;28;20228;-70
2023/09/04 03:29:49;;;;;;;4.30;2.93;;;15.90;92.80;;;;;;6256030;28;20290;-70
2023/09/04 03:32:49;;;;;;;4.47;2.73;;;15.90;92.30;;;;;;6267623;28;20233;-69
2023/09/04 03:35:50;;;;;;;4.57;3.07;;;15.80;92.50;;;;;;6294078;28;20187;-69
2023/09/04 03:38:51;;;;;;;6.23;2.70;;;;;;;;;;6272074;28;20305;-67
2023/09/04 03:41:52;;;;;;;562.13;527.03;;;;;;;;;;6282487;28;20194;-67
2023/09/04 03:44:53;;;;;;;3.30;2.73;;;;;;;;;;6288301;28;20197;-67
2023/09/04 03:47:54;;;;;;;2.87;2.63;;;;;;;;;;6276395;28;20213;-67
2023/09/04 03:50:59;;;;;;;3.03;2.77;;;;;;;;;;6301166;28;20259;-67
2023/09/04 03:54:03;;;;;;;3.53;2.83;;;;;;;;;;6269574;28;20199;-67
2023/09/04 03:57:04;;;;;;;5.33;3.30;;;;;;;;;;6278281;28;20333;-67
2023/09/04 04:00:14;;;;;;;3.77;2.87;;;;;;;;;;6305181;28;20226;-67
2023/09/04 04:03:15;;;;;;;4.67;2.50;;;;;;;;;;6272009;28;20191;-67
2023/09/04 04:06:16;;;;;;;4.10;2.60;;;;;;;;;;6281112;28;20220;-67
2023/09/04 04:09:21;;;;;;;3.20;2.90;;;;;;;;;;6282400;28;20196;-67
2023/09/04 04:12:24;;;;;;;4.10;3.03;;;;;;;;;;6256657;28;20194;-68
2023/09/04 04:15:25;;;;;;;4.07;3.00;;;;;;;;;;6264004;28;20199;-68
2023/09/04 04:18:27;;;;;;;2.90;2.60;;;15.80;92.60;;;;;;6290530;28;20197;-68
2023/09/04 04:21:28;;;;;;;3.93;2.80;;;15.50;91.80;;;;;;6276078;28;20183;-68
2023/09/04 04:24:28;;;;;;;4.73;2.97;;;15.50;91.70;;;;;;6252672;28;20190;-68
2023/09/04 04:27:29;;;;;;;3.77;2.80;;;15.40;91.50;;;;;;6296059;28;20189;-68
2023/09/04 04:30:30;;;;;;;4.67;3.27;;;15.40;91.60;;;;;;6253442;28;20190;-68
2023/09/04 04:33:30;;;;;;;4.43;2.83;;;15.40;91.10;;;;;;6265986;28;20239;-67
2023/09/04 04:36:31;;;;;;;3.80;2.83;;;15.40;91.80;;;;;;6295903;28;20186;-68
2023/09/04 04:39:32;;;;;;;5.97;3.20;;;15.30;91.80;;;;;;6268547;28;20218;-68
2023/09/04 04:42:32;;;;;;;5.37;3.07;;;15.30;91.80;;;;;;6258470;28;20197;-68
2023/09/04 04:45:33;;;;;;;4.57;2.73;;;15.30;91.70;;;;;;6271919;28;20184;-68
2023/09/04 04:48:34;;;;;;;2.87;2.67;;;15.30;92.20;;;;;;6253761;28;20254;-68
2023/09/04 04:51:34;;;;;;;4.83;3.40;;;15.30;91.50;;;;;;6254408;28;20186;-68
2023/09/04 04:54:35;;;;;;;4.13;3.30;;;15.40;92.60;;;;;;6250075;28;20868;-68
2023/09/04 04:57:36;;;;;;;4.67;3.20;;;15.40;91.80;;;;;;6290521;28;20209;-68
2023/09/04 05:00:36;;;;;;;3.60;3.30;;;15.40;92.00;;;;;;6265832;28;20256;-68
2023/09/04 05:03:37;;;;;;;4.93;3.50;;;15.40;92.00;;;;;;6268858;28;20187;-68
2023/09/04 05:06:38;;;;;;;4.10;3.43;;;15.40;93.00;;;;;;6293336;28;20244;-68
2023/09/04 05:09:38;;;;;;;5.47;3.10;;;15.50;92.90;;;;;;6273670;28;20197;-68
2023/09/04 05:12:39;;;;;;;4.33;3.57;;;15.50;92.60;;;;;;6272030;28;20186;-68
2023/09/04 05:15:40;;;;;;;5.57;3.33;;;15.50;92.30;;;;;;6265978;28;20214;-68
2023/09/04 05:18:40;;;;;;;4.23;3.20;;;15.60;92.80;;;;;;6274381;28;20545;-68
2023/09/04 05:21:41;;;;;;;3.63;3.20;;;15.60;92.50;;;;;;6263419;28;20194;-68
2023/09/04 05:24:43;;;;;;;5.73;3.10;;;15.60;92.70;;;;;;6274739;28;20194;-68
2023/09/04 05:27:45;;;;;;;3.67;3.33;;;15.60;92.50;;;;;;6288856;28;20193;-68
2023/09/04 05:30:46;;;;;;;5.07;3.37;;;15.60;92.40;;;;;;6261739;28;20252;-68
2023/09/04 05:33:47;;;;;;;3.40;3.10;;;15.70;92.80;;;;;;6282121;28;20237;-68
2023/09/04 05:36:48;;;;;;;4.07;3.60;;;15.70;92.20;;;;;;6297395;28;20201;-68
2023/09/04 05:39:49;;;;;;;4.10;3.80;;;15.70;92.20;;;;;;6277006;28;20217;-68
2023/09/04 05:42:50;;;;;;;4.07;3.77;;;15.70;92.30;;;;;;6292209;28;21027;-68
2023/09/04 05:45:50;;;;;;;4.00;3.60;;;15.70;91.80;;;;;;6255095;28;20197;-68
2023/09/04 05:48:51;;;;;;;3.87;3.57;;;15.80;91.80;;;;;;6275779;28;20186;-68
2023/09/04 05:51:54;;;;;;;4.93;3.73;;;15.70;92.00;;;;;;6299361;28;20190;-68
2023/09/04 05:54:54;;;;;;;5.60;3.80;;;15.70;92.20;;;;;;6248923;28;20215;-68
2023/09/04 05:57:55;;;;;;;4.87;3.57;;;15.80;92.00;;;;;;6252149;28;20239;-68
2023/09/04 06:00:56;;;;;;;4.00;3.63;;;15.80;92.40;;;;;;6282603;28;20249;-68
2023/09/04 06:03:56;;;;;;;4.23;3.93;;;15.70;92.60;;;;;;6259277;28;20189;-68
2023/09/04 06:06:57;;;;;;;4.57;3.50;;;15.80;92.80;;;;;;6261876;28;20190;-68
2023/09/04 06:09:58;;;;;;;4.03;3.10;;;15.80;92.90;;;;;;6264846;28;20190;-68
2023/09/04 06:12:58;;;;;;;3.80;3.50;;;15.80;93.20;;;;;;6275584;28;20189;-68
2023/09/04 06:16:00;;;;;;;4.50;4.07;;;15.80;93.40;;;;;;6272847;28;20194;-68
2023/09/04 06:19:00;;;;;;;4.87;4.47;;;15.80;93.60;;;;;;6286547;28;20215;-68
2023/09/04 06:22:01;;;;;;;5.23;3.90;;;15.80;93.50;;;;;;6288040;28;20177;-68
2023/09/04 06:25:02;;;;;;;5.90;4.30;;;15.80;93.60;;;;;;6253493;28;20186;-68
2023/09/04 06:28:03;;;;;;;4.67;4.13;;;15.80;93.60;;;;;;6281980;28;20200;-68
2023/09/04 06:31:04;;;;;;;4.40;4.00;;;15.80;93.80;;;;;;6277612;28;20197;-68
2023/09/04 06:34:04;;;;;;;5.03;4.63;;;15.80;93.30;;;;;;6288583;28;20210;-68
2023/09/04 06:37:05;;;;;;;4.63;4.07;;;15.80;94.10;;;;;;6257448;28;20213;-68
2023/09/04 06:40:07;;;;;;;6.70;4.33;;;15.80;94.10;;;;;;6271796;28;20217;-68
2023/09/04 06:43:08;;;;;;;7.03;4.30;;;15.90;94.00;;;;;;6271646;28;20195;-68
2023/09/04 06:46:09;;;;;;;5.37;4.53;;;15.90;93.80;;;;;;6271536;28;20190;-68
2023/09/04 06:49:09;;;;;;;5.50;5.00;;;16.00;93.30;;;;;;6271603;28;20209;-68
2023/09/04 06:52:10;;;;;;;5.00;4.50;;;16.00;92.80;;;;;;6299503;28;20197;-68
2023/09/04 06:55:11;;;;;;;6.03;4.77;;;16.00;94.10;;;;;;6277014;28;20275;-68
2023/09/04 06:58:11;;;;;;;5.83;5.17;;;16.10;94.00;;;;;;6270308;28;20184;-68
2023/09/04 07:01:12;;;;;;;4.93;4.57;;;16.20;94.00;;;;;;6271876;28;20284;-68
2023/09/04 07:04:13;;;;;;;7.97;4.87;;;16.20;93.20;;;;;;6273942;28;20193;-68
2023/09/04 07:07:13;;;;;;;5.57;4.97;;;16.20;93.40;;;;;;6266535;28;20183;-68
2023/09/04 07:10:14;;;;;;;4.93;4.53;;;16.30;93.10;;;;;;6301805;28;20193;-68
2023/09/04 07:13:15;;;;;;;4.93;4.30;;;16.40;91.50;;;;;;6274801;28;20212;-68
2023/09/04 07:16:16;;;;;;;7.03;4.27;;;16.50;92.40;;;;;;6267389;28;20190;-68
2023/09/04 07:19:17;;;;;;;5.80;5.30;;;16.60;91.80;;;;;;6251213;28;20289;-68
2023/09/04 07:22:17;;;;;;;4.93;4.53;;;16.60;91.20;;;;;;6267839;28;20199;-68
2023/09/04 07:25:18;;;;;;;4.53;4.10;;;16.80;90.90;;;;;;6258830;28;20187;-68
2023/09/04 07:28:19;;;;;;;5.00;4.60;;;16.90;90.00;;;;;;6282037;28;20190;-69
2023/09/04 07:31:20;;;;;;;5.03;4.53;;;17.00;90.90;;;;;;6298039;28;20288;-69
2023/09/04 07:34:21;;;;;;;4.90;4.50;;;17.00;88.80;;;;;;6295237;28;20202;-67
2023/09/04 07:37:25;;;;;;;4.80;4.40;;;17.10;88.70;;;;;;6270236;28;20194;-67
2023/09/04 07:40:25;;;;;;;6.10;4.80;;;17.20;89.00;;;;;;6285240;28;20310;-67
2023/09/04 07:43:26;;;;;;;5.07;4.57;;;17.30;89.80;;;;;;6256232;28;20190;-67
2023/09/04 07:46:27;;;;;;;6.40;4.57;;;17.40;88.00;;;;;;6293223;28;20190;-68
2023/09/04 07:49:28;;;;;;;4.90;4.50;;;17.40;88.10;;;;;;6255294;28;20198;-68
2023/09/04 07:52:28;;;;;;;4.97;4.53;;;17.50;89.40;;;;;;6273579;28;20250;-68
2023/09/04 07:55:29;;;;;;;4.80;4.40;;;17.50;86.00;;;;;;6293028;28;20190;-68
2023/09/04 07:58:30;;;;;;;4.83;4.43;;;17.50;86.30;;;;;;6258447;28;20244;-68
2023/09/04 08:01:32;;;;;;;5.07;4.67;;;17.60;87.10;;;;;;6265181;28;20220;-68
2023/09/04 08:04:33;;;;;;;4.67;4.27;;;17.80;88.00;;;;;;6254128;28;20194;-68
2023/09/04 08:07:33;;;;;;;5.90;4.63;;;17.90;87.80;;;;;;6286256;28;20289;-68
2023/09/04 08:10:39;;;;;;;5.07;4.50;;;18.10;80.50;;;;;;6253218;28;20190;-68
2023/09/04 08:13:40;;;;;;;7.23;5.40;;;18.20;81.50;;;;;;6270886;28;20192;-68
2023/09/04 08:16:41;;;;;;;4.70;4.30;;;18.30;83.40;;;;;;6271814;28;20201;-68
2023/09/04 08:19:42;;;;;;;5.97;4.47;;;;;;;;;;6288228;28;20299;-68
2023/09/04 08:22:43;;;;;;;4.80;4.40;;;;;;;;;;6267752;28;20201;-68
2023/09/04 08:25:44;;;;;;;5.07;4.67;;;;;;;;;;6288974;28;20193;-68
2023/09/04 08:28:45;;;;;;;5.53;5.13;;;;;;;;;;6249289;28;20202;-68
2023/09/04 08:31:46;;;;;;;5.03;4.60;;;;;;;;;;6264357;28;20255;-68
2023/09/04 08:34:47;;;;;;;4.97;4.20;;;;;;;;;;6295009;28;20189;-68
2023/09/04 08:37:48;;;;;;;5.67;4.73;;;;;;;;;;6276424;28;20194;-68
2023/09/04 08:40:49;;;;;;;5.30;4.80;;;;;;;;;;6293972;28;20225;-68
2023/09/04 08:43:50;;;;;;;4.20;3.90;;;;;;;;;;6290888;28;20217;-68
2023/09/04 08:46:51;;;;;;;4.27;3.90;;;;;;;;;;6301607;28;20188;-68
2023/09/04 08:49:53;;;;;;;4.50;4.20;;;;;;;;;;6283472;28;20241;-68
2023/09/04 08:52:54;;;;;;;5.37;4.33;;;;;;;;;;6291202;28;20257;-68
2023/09/04 08:55:55;;;;;;;4.73;4.20;;;;;;;;;;6289162;28;20196;-68
2023/09/04 08:58:56;;;;;;;3.60;3.30;;;18.60;84.20;;;;;;6290490;28;20324;-68
2023/09/04 09:02:00;;;;;;;3.90;3.60;;;19.80;67.20;;;;;;6275347;28;20193;-68
2023/09/04 09:05:02;;;;;;;4.43;4.00;;;20.20;70.10;;;;;;6297025;28;20190;-68
2023/09/04 09:08:05;;;;;;;5.07;4.57;;;20.30;73.40;;;;;;6272956;28;20186;-68
2023/09/04 09:11:06;;;;;;;4.40;4.00;;;20.50;73.80;;;;;;6272769;28;20189;-68
2023/09/04 09:14:06;;;;;;;4.70;4.30;;;20.50;75.60;;;;;;6305213;28;20216;-68
2023/09/04 09:17:18;;;;;;;5.00;4.60;;;-34.10;78.80;;;;;;6279324;28;20280;-68
2023/09/04 09:20:32;;;;;;;5.07;4.67;;;3.60;77.10;;;;;;6286779;28;20209;-68
2023/09/04 09:23:33;;;;;;;4.80;4.40;;;19.90;78.00;;;;;;6278281;28;20185;-68
2023/09/04 09:26:34;;;;;;;4.70;4.20;;;19.70;77.00;;;;;;6273756;28;20205;-68
2023/09/04 09:29:34;;;;;;;5.50;4.73;;;19.70;77.40;;;;;;6289528;28;20212;-68
2023/09/04 09:32:36;;;;;;;5.33;4.30;;;19.70;77.90;;;;;;6305566;28;20244;-68
2023/09/04 09:35:40;;;;;;;4.37;3.97;;;19.70;76.50;;;;;;6276319;28;20193;-68
2023/09/04 09:38:44;;;;;;;4.97;4.47;;;19.70;76.30;;;;;;6272824;28;20196;-68
2023/09/04 09:41:45;;;;;;;4.60;4.27;;;19.90;76.90;;;;;;6253218;28;20198;-69
2023/09/04 09:44:47;;;;;;;5.27;4.77;;;20.00;77.10;;;;;;6268563;28;20209;-68
2023/09/04 09:47:50;;;;;;;5.30;4.87;;;20.10;76.90;;;;;;6253618;28;20262;-68
2023/09/04 09:50:53;;;;;;;4.87;4.37;;;20.10;77.00;;;;;;6274979;28;20182;-68
2023/09/04 09:53:54;;;;;;;4.90;4.40;;;-2.10;77.20;;;;;;6283448;28;20190;-68
2023/09/04 09:56:55;;;;;;;4.60;4.20;;;-1.30;76.50;;;;;;6286080;28;20182;-68
2023/09/04 09:59:56;;;;;;;4.37;4.03;;;-4.60;76.30;;;;;;6275288;28;20213;-68
2023/09/04 10:02:57;;;;;;;4.50;3.83;;;-4.70;73.40;;;;;;6286357;28;20182;-68
2023/09/04 10:06:00;;;;;;;4.30;4.00;;;-4.60;75.00;;;;;;6300281;28;20208;-68
2023/09/04 10:09:05;;;;;;;4.20;3.90;;;-6.40;74.40;;;;;;6282470;28;20218;-68
2023/09/04 10:12:29;;;;;;;4.00;3.70;;;-9.00;73.00;;;;;;6284814;28;20214;-68
2023/09/04 10:15:34;;;;;;;4.00;3.70;;;-10.80;72.30;;;;;;6272309;28;20182;-69
2023/09/04 10:18:38;;;;;;;6.00;3.80;;;-11.40;71.40;;;;;;6271875;28;20182;-68
2023/09/04 10:21:46;;;;;;;3.70;3.40;;;-11.90;71.20;;;;;;6262762;28;20210;-68
2023/09/04 10:24:47;;;;;;;4.13;3.83;;;-13.20;70.60;;;;;;6272349;28;20185;-68
2023/09/04 10:27:54;;;;;;;7.13;4.40;;;-14.70;70.20;;;;;;6292882;28;20177;-68
2023/09/04 10:30:57;;;;;;;4.13;3.83;;;-16.80;72.10;;;;;;6264955;28;20197;-68
2023/09/04 10:34:00;;;;;;;4.87;4.40;;;-30.20;74.20;;;;;;6252881;28;20241;-68
2023/09/04 10:37:01;;;;;;;4.27;3.97;;;20.50;73.30;;;;;;6270975;28;20185;-68
2023/09/04 10:40:02;;;;;;;4.47;4.07;;;20.60;73.30;;;;;;6275322;28;20284;-68
2023/09/04 10:43:03;;;;;;;4.57;4.17;;;20.60;71.60;;;;;;6266886;28;20191;-68
2023/09/04 10:46:12;;;;;;;4.23;3.93;;;20.80;71.10;;;;;;6253622;28;20195;-68
2023/09/04 10:49:30;;;;;;;3.97;3.27;;;21.00;70.00;;;;;;6271349;28;20250;-69
2023/09/04 10:52:42;;;;;;;4.83;4.40;;;21.10;69.70;;;;;;6278862;28;20188;-69
2023/09/04 10:56:12;;;;;;;3.90;3.60;;;21.10;69.30;;;;;;6299273;28;20190;-68
2023/09/04 10:59:13;;;;;;;3.67;3.37;;;21.10;66.40;;;;;;6291731;28;20214;-68
2023/09/04 11:02:31;;;;;;;4.03;3.73;;;21.30;65.80;;;;;;6299644;28;20189;-68
2023/09/04 11:06:08;;;;;;;4.07;3.77;;;21.30;65.50;;;;;;6273086;28;20187;-68
2023/09/04 11:09:12;;;;;;;4.07;3.77;;;;;;;;;;6270816;28;20193;-69
2023/09/04 11:12:23;;;;;;;3.70;3.40;;;;;;;;;;6275670;28;20272;-69
2023/09/04 11:15:26;;;;;;;3.80;3.50;;;;;;;;;;6289980;28;20208;-68
2023/09/04 11:18:31;;;;;;;4.30;3.90;;;;;;;;;;6283075;28;20191;-69
2023/09/04 11:21:33;;;;;;;3.77;3.47;;;;;;;;;;6284929;28;20214;-68
2023/09/04 11:24:34;;;;;;;3.57;3.27;;;;;;;;;;6288577;28;20185;-69
2023/09/04 11:27:35;;;;;;;4.20;3.80;;;;;;;;;;6285575;28;20229;-68
2023/09/04 11:30:36;;;;;;;5.47;3.57;;;;;;;;;;6277171;28;20198;-69
2023/09/04 11:33:37;;;;;;;3.90;3.60;;;;;;;;;;6303141;28;20243;-69
2023/09/04 11:36:39;;;;;;;4.37;3.13;;;;;;;;;;6247656;28;20214;-68
2023/09/04 11:39:53;;;;;;;3.60;3.30;;;;;;;;;;6298396;28;20225;-68
2023/09/04 11:42:54;;;;;;;3.73;3.43;;;;;;;;;;6285332;28;20178;-68
2023/09/04 11:45:55;;;;;;;3.70;3.40;;;;;;;;;;6287816;28;20224;-68
2023/09/04 11:48:56;;;;;;;3.30;3.00;;;;;;;;;;6286430;28;20178;-69
2023/09/04 11:51:57;;;;;;;3.73;3.43;;;;;;;;;;6273814;28;20279;-69
2023/09/04 11:54:59;;;;;;;3.10;2.90;;;;;;;;;;6297118;28;20223;-69
2023/09/04 11:58:03;;;;;;;3.33;3.03;;;;;;;;;;6271087;28;20182;-69
2023/09/04 12:01:04;;;;;;;3.90;3.10;;;;;;;;;;6307056;28;20219;-69
2023/09/04 12:04:05;;;;;;;4.83;3.00;;;;;;;;;;6256871;28;20200;-69
2023/09/04 12:07:07;;;;;;;3.40;3.17;;;21.40;65.10;;;;;;6287202;28;20190;-69
2023/09/04 12:10:08;;;;;;;3.63;3.33;;;;;;;;;;6276808;28;20194;-69
2023/09/04 12:13:09;;;;;;;4.23;2.83;;;;;;;;;;6278014;28;20201;-69
2023/09/04 12:16:10;;;;;;;2.60;2.40;;;;;;;;;;6272650;28;20201;-69
2023/09/04 12:19:12;;;;;;;3.13;2.53;;;;;;;;;;6283646;28;20221;-67
2023/09/04 12:22:14;;;;;;;2.47;1.77;;;23.90;60.20;;;;;;6271138;28;20185;-67
2023/09/04 12:25:15;;;;;;;2.30;1.80;;;;;;;;;;6251074;28;20221;-67
2023/09/04 12:28:18;;;;;;;2.00;1.90;;;;;;;;;;6282635;28;20190;-68
2023/09/04 12:31:23;;;;;;;2.40;1.98;;;;;;;;;;6279309;28;20213;-68
2023/09/04 12:34:27;;;;;;;4.35;2.17;;;34.40;41.20;;;;;;6277084;28;20194;-68
2023/09/04 12:37:33;;;;;;;2.10;1.90;;;;;;;;;;6266463;28;20189;-67
2023/09/04 12:40:34;;;;;;;3.30;2.10;;;;;;;;;;6284871;28;20221;-68
2023/09/04 12:43:35;;;;;;;2.38;1.95;;;;;;;;;;6286577;28;20190;-68
2023/09/04 12:46:36;;;;;;;2.67;2.40;;;;;;;;;;6257983;28;20188;-68
2023/09/04 12:49:37;;;;;;;2.13;1.95;;;;;;;;;;6254230;28;20236;-68
2023/09/04 12:52:40;;;;;;;1.70;1.60;;;35.50;37.00;;;;;;6294905;28;20200;-68
2023/09/04 12:55:41;;;;;;;2.10;1.87;;;;;;;;;;6258132;28;20186;-68
2023/09/04 12:58:42;;;;;;;2.42;2.20;;;33.60;38.70;;;;;;6269393;28;20207;-68
2023/09/04 13:01:42;;;;;;;2.13;2.03;;;35.20;37.80;;;;;;6256378;28;20240;-68
2023/09/04 13:04:43;;;;;;;1.98;1.73;;;;;;;;;;6253493;28;20223;-68
2023/09/04 13:07:44;;;;;;;4.10;2.13;;;;;;;;;;6269216;28;20186;-68
2023/09/04 13:10:45;;;;;;;4.05;2.40;;;;;;;;;;6288424;28;20248;-68
2023/09/04 13:13:46;;;;;;;2.15;2.03;;;;;;;;;;6287080;28;20189;-68
2023/09/04 13:16:48;;;;;;;2.05;1.95;;;;;;;;;;6290877;28;20177;-68
2023/09/04 13:19:49;;;;;;;2.88;1.92;;;;;;;;;;6290837;28;20316;-68
2023/09/04 13:22:50;;;;;;;2.85;1.70;;;;;;;;;;6270169;28;20228;-68
2023/09/04 13:25:50;;;;;;;4.60;1.90;;;40.80;30.90;;;;;;6285862;28;20205;-68
2023/09/04 13:28:51;;;;;;;2.78;1.98;;;41.90;30.10;;;;;;6279075;28;20195;-69
2023/09/04 13:31:52;;;;;;;2.00;1.90;;;41.80;29.10;;;;;;6274675;28;20225;-68
2023/09/04 13:34:52;;;;;;;2.42;2.22;;;41.80;28.90;;;;;;6289416;28;20184;-68
2023/09/04 13:37:53;;;;;;;5.30;1.95;;;41.90;29.40;;;;;;6281475;28;20232;-68
2023/09/04 13:40:54;;;;;;;2.28;1.88;;;42.20;30.00;;;;;;6267035;28;20213;-68
2023/09/04 13:43:56;;;;;;;3.30;1.95;;;42.00;28.80;;;;;;6275094;28;20201;-69
2023/09/04 13:46:56;;;;;;;2.28;2.08;;;42.10;28.10;;;;;;6274584;28;20186;-69
2023/09/04 13:49:58;;;;;;;2.13;1.80;;;41.80;28.70;;;;;;6269629;28;20234;-68
2023/09/04 13:52:59;;;;;;;2.25;2.03;;;41.90;28.40;;;;;;6282635;28;20311;-69
2023/09/04 13:56:00;;;;;;;2.40;2.20;;;41.90;27.80;;;;;;6249671;28;20190;-68
2023/09/04 13:59:00;;;;;;;2.00;1.83;;;41.80;27.80;;;;;;6288687;28;20206;-69
2023/09/04 14:02:02;;;;;;;2.13;1.92;;;41.70;28.30;;;;;;6289945;28;20181;-69
2023/09/04 14:05:03;;;;;;;1.95;1.85;;;41.80;28.30;;;;;;6290149;28;20260;-69
2023/09/04 14:08:06;;;;;;;2.33;2.13;;;41.50;28.80;;;;;;6248666;28;20197;-69
2023/09/04 14:11:06;;;;;;;1.88;1.77;;;41.40;28.70;;;;;;6273483;28;20202;-69
2023/09/04 14:14:07;;;;;;;2.40;2.20;;;-14.40;24.80;;;;;;6286733;28;20297;-69
2023/09/04 14:17:08;;;;;;;2.20;2.00;;;41.20;29.10;;;;;;6260792;28;20243;-69
2023/09/04 14:20:09;;;;;;;2.80;2.13;;;;;;;;;;6275529;28;20271;-69
2023/09/04 14:23:09;;;;;;;2.10;1.90;;;41.10;28.30;;;;;;6292431;28;20198;-69
2023/09/04 14:26:10;;;;;;;2.00;1.88;;;41.20;29.40;;;;;;6283608;28;20193;-69
2023/09/04 14:29:12;;;;;;;1.83;1.73;;;40.80;29.60;;;;;;6285393;28;20278;-68
2023/09/04 14:32:12;;;;;;;2.45;2.22;;;40.60;30.20;;;;;;6284762;28;20230;-69
2023/09/04 14:35:13;;;;;;;2.17;2.00;;;;;;;;;;6267812;28;20242;-69
2023/09/04 14:38:14;;;;;;;3.80;1.67;;;40.50;29.00;;;;;;6282886;28;20182;-69
2023/09/04 14:41:22;;;;;;;2.63;2.25;;;40.00;29.80;;;;;;6272169;28;20225;-69
2023/09/04 14:44:23;;;;;;;4.25;2.30;;;39.60;29.90;;;;;;6299839;28;20244;-69
2023/09/04 14:47:24;;;;;;;2.47;2.10;;;;;;;;;;6254939;28;20248;-69
2023/09/04 14:50:25;;;;;;;2.10;1.90;;;;;;;;;;6289536;28;20196;-69
2023/09/04 14:53:26;;;;;;;2.17;2.08;;;;;;;;;;6284800;28;20250;-69
2023/09/04 14:56:27;;;;;;;4.18;2.25;;;36.60;33.80;;;;;;6291069;28;20197;-68
2023/09/04 14:59:28;;;;;;;2.72;2.17;;;;;;;;;;6267846;28;20232;-69
2023/09/04 15:02:29;;;;;;;4.77;2.33;;;35.60;33.80;;;;;;6286912;28;20219;-68
2023/09/04 15:05:30;;;;;;;2.93;2.60;;;;;;;;;;6278206;28;20197;-69
2023/09/04 15:08:31;;;;;;;2.43;2.23;;;;;;;;;;6258584;28;20190;-68
2023/09/04 15:11:32;;;;;;;3.07;2.30;;;;;;;;;;6287515;28;20197;-68
2023/09/04 15:14:33;;;;;;;3.67;2.40;;;;;;;;;;6276589;28;20196;-68
2023/09/04 15:17:33;;;;;;;3.30;2.30;;;31.20;38.10;;;;;;6284978;28;20329;-68
2023/09/04 15:20:34;;;;;;;3.60;2.70;;;;;;;;;;6271289;28;20221;-69
2023/09/04 15:23:35;;;;;;;3.10;2.40;;;;;;;;;;6284104;28;20201;-68
2023/09/04 15:26:37;;;;;;;2.30;2.00;;;;;;;;;;6303278;28;20201;-68
2023/09/04 15:29:38;;;;;;;3.57;2.60;;;;;;;;;;6279804;28;20202;-68
2023/09/04 15:32:39;;;;;;;4.07;2.70;;;;;;;;;;6288134;28;20245;-68
2023/09/04 15:35:41;;;;;;;3.03;2.37;;;;;;;;;;6288666;28;20259;-68
2023/09/04 15:38:43;;;;;;;2.90;2.10;;;;;;;;;;6269003;28;20191;-68
2023/09/04 15:41:44;;;;;;;4.90;2.70;;;;;;;;;;6255139;28;20225;-68
2023/09/04 15:44:45;;;;;;;2.73;2.30;;;;;;;;;;6259051;28;20189;-68
2023/09/04 15:47:46;;;;;;;4.57;2.50;;;;;;;;;;6286715;28;20204;-68
2023/09/04 15:50:48;;;;;;;2.57;2.37;;;;;;;;;;6256613;28;20189;-68
2023/09/04 15:53:49;;;;;;;4.40;2.50;;;;;;;;;;6281244;28;20190;-68
2023/09/04 15:56:51;;;;;;;4.57;2.30;;;;;;;;;;6261347;28;20198;-68
2023/09/04 15:59:52;;;;;;;4.93;2.87;;;;;;;;;;6287994;28;20292;-68
2023/09/04 16:02:53;;;;;;;2.90;2.50;;;;;;;;;;6263297;28;20190;-68
2023/09/04 16:05:55;;;;;;;5.70;2.77;;;;;;;;;;6264514;28;20185;-68
2023/09/04 16:08:56;;;;;;;5.07;2.50;;;;;;;;;;6286462;28;20272;-68
2023/09/04 16:11:57;;;;;;;2.43;2.23;;;;;;;;;;6287428;28;20196;-68
2023/09/04 16:14:59;;;;;;;4.27;2.50;;;;;;;;;;6270571;28;20247;-68
2023/09/04 16:18:00;;;;;;;3.83;2.73;;;;;;;;;;6268452;28;20195;-68
2023/09/04 16:21:02;;;;;;;2.83;2.50;;;;;;;;;;6270597;28;20243;-68
2023/09/04 16:24:04;;;;;;;2.80;2.23;;;;;;;;;;6289695;28;20197;-68